createdAt,value
2019-06-10T00:02:31.906Z,99.90
2019-06-10T00:05:11.069Z,99.90
2019-06-10T00:08:02.121Z,99.90
2019-06-10T00:10:56.806Z,99.90
2019-06-10T00:13:41.457Z,99.90
2019-06-10T00:16:22.169Z,99.90
2019-06-10T00:18:58.636Z,99.90
2019-06-10T00:21:33.455Z,99.90
2019-06-10T00:24:08.850Z,99.90
2019-06-10T00:26:42.267Z,99.90
2019-06-10T00:29:16.688Z,99.90
2019-06-10T00:31:50.941Z,99.90
2019-06-10T00:34:31.575Z,99.90
2019-06-10T00:37:10.302Z,99.90
2019-06-10T00:39:59.906Z,99.90
2019-06-10T00:43:02.232Z,99.90
2019-06-10T00:47:03.043Z,99.90
2019-06-10T00:50:03.308Z,99.90
2019-06-10T00:53:04.203Z,99.90
2019-06-10T00:55:47.843Z,99.90
2019-06-10T00:58:23.806Z,99.90
2019-06-10T01:01:04.257Z,99.90
2019-06-10T01:03:43.234Z,99.90
2019-06-10T01:06:31.721Z,99.90
2019-06-10T01:13:12.241Z,99.90
2019-06-10T01:16:01.604Z,99.90
2019-06-10T01:18:38.307Z,99.90
2019-06-10T01:21:18.175Z,99.90
2019-06-10T01:24:11.582Z,99.90
2019-06-10T01:26:53.785Z,99.90
2019-06-10T01:29:36.794Z,99.90
2019-06-10T01:32:14.923Z,99.90
2019-06-10T01:34:50.672Z,99.90
2019-06-10T01:37:43.213Z,99.90
2019-06-10T01:40:35.720Z,99.90
2019-06-10T01:43:18.346Z,99.90
2019-06-10T01:49:30.762Z,99.90
2019-06-10T01:52:07.189Z,99.90
2019-06-10T01:54:47.271Z,99.90
2019-06-10T01:58:07.766Z,99.90
2019-06-10T02:00:57.358Z,99.90
2019-06-10T02:08:08.716Z,99.90
2019-06-10T02:14:32.763Z,99.90
2019-06-10T02:17:20.035Z,99.90
2019-06-10T02:20:04.669Z,99.90
2019-06-10T02:23:35.266Z,99.90
2019-06-10T02:26:55.479Z,99.90
2019-06-10T02:29:36.340Z,99.90
2019-06-10T02:32:31.305Z,99.90
2019-06-10T02:35:10.495Z,99.90
2019-06-10T02:37:44.366Z,99.90
2019-06-10T02:40:31.100Z,99.90
2019-06-10T02:43:03.546Z,99.90
2019-06-10T02:45:37.740Z,99.90
2019-06-10T02:48:13.762Z,99.90
2019-06-10T02:51:06.043Z,99.90
2019-06-10T02:53:43.515Z,99.90
2019-06-10T02:56:17.297Z,99.90
2019-06-10T02:58:53.597Z,99.90
2019-06-10T03:01:31.880Z,99.90
2019-06-10T03:03:57.547Z,99.90
2019-06-10T03:06:38.501Z,99.90
2019-06-10T03:09:03.851Z,99.90
2019-06-10T03:11:37.486Z,99.90
2019-06-10T03:14:09.358Z,99.90
2019-06-10T03:17:32.144Z,99.90
2019-06-10T03:20:03.530Z,99.90
2019-06-10T03:22:38.525Z,99.90
2019-06-10T03:25:12.962Z,99.90
2019-06-10T03:27:42.830Z,99.90
2019-06-10T03:30:20.131Z,99.90
2019-06-10T03:32:47.681Z,99.90
2019-06-10T03:35:23.844Z,99.90
2019-06-10T03:38:03.064Z,99.90
2019-06-10T03:40:46.696Z,99.90
2019-06-10T03:43:18.746Z,99.90
2019-06-10T03:45:49.626Z,99.90
2019-06-10T03:48:23.742Z,99.90
2019-06-10T03:50:55.520Z,99.90
2019-06-10T03:53:28.574Z,99.90
2019-06-10T03:55:59.114Z,99.90
2019-06-10T03:58:32.471Z,99.90
2019-06-10T04:01:03.159Z,99.90
2019-06-10T04:03:34.387Z,99.90
2019-06-10T04:06:05.840Z,99.90
2019-06-10T04:08:36.157Z,99.90
2019-06-10T04:11:15.689Z,99.90
2019-06-10T04:13:49.411Z,99.90
2019-06-10T04:16:22.599Z,99.90
2019-06-10T04:18:54.776Z,99.90
2019-06-10T04:21:28.356Z,99.90
2019-06-10T04:24:02.062Z,99.90
2019-06-10T04:26:32.778Z,99.90
2019-06-10T04:29:04.190Z,99.90
2019-06-10T04:31:34.916Z,99.90
2019-06-10T04:34:06.417Z,99.90
2019-06-10T04:36:37.325Z,99.90
2019-06-10T04:39:08.696Z,99.90
2019-06-10T04:41:39.058Z,99.90
2019-06-10T04:44:13.530Z,99.90
2019-06-10T04:46:48.681Z,99.90
2019-06-10T04:49:21.379Z,99.90
2019-06-10T04:51:54.023Z,99.90
2019-06-10T04:54:26.630Z,99.90
2019-06-10T04:57:32.703Z,99.90
2019-06-10T05:00:11.204Z,99.90
2019-06-10T05:02:36.942Z,99.90
2019-06-10T05:05:08.827Z,99.90
2019-06-10T05:07:42.601Z,99.90
2019-06-10T05:10:14.489Z,99.90
2019-06-10T05:12:47.199Z,99.90
2019-06-10T05:15:19.434Z,99.90
2019-06-10T05:17:52.721Z,99.90
2019-06-10T05:20:39.958Z,99.90
2019-06-10T05:23:02.282Z,99.90
2019-06-10T05:25:33.121Z,99.90
2019-06-10T05:28:08.678Z,99.90
2019-06-10T05:30:42.685Z,99.90
2019-06-10T05:33:13.452Z,99.90
2019-06-10T05:35:52.856Z,99.90
2019-06-10T05:38:26.797Z,99.90
2019-06-10T05:48:26.701Z,99.90
2019-06-10T05:51:03.080Z,99.90
2019-06-10T05:53:35.524Z,99.90
2019-06-10T05:56:07.528Z,99.90
2019-06-10T05:58:38.367Z,99.90
2019-06-10T06:01:13.198Z,99.90
2019-06-10T06:03:45.676Z,99.90
2019-06-10T06:06:16.406Z,99.90
2019-06-10T06:08:46.993Z,99.90
2019-06-10T06:11:18.888Z,99.90
2019-06-10T06:13:57.718Z,99.90
2019-06-10T06:16:29.911Z,99.90
2019-06-10T06:19:03.262Z,99.90
2019-06-10T06:21:41.648Z,99.90
2019-06-10T06:24:09.400Z,99.90
2019-06-10T06:26:43.517Z,99.90
2019-06-10T06:29:16.422Z,99.90
2019-06-10T06:31:52.315Z,99.90
2019-06-10T06:34:23.357Z,99.90
2019-06-10T06:36:58.151Z,99.90
2019-06-10T06:39:32.259Z,99.90
2019-06-10T06:42:06.501Z,99.90
2019-06-10T06:44:39.435Z,99.90
2019-06-10T06:47:13.052Z,99.90
2019-06-10T06:49:48.936Z,99.90
2019-06-10T06:52:46.412Z,99.90
2019-06-10T06:54:58.867Z,99.90
2019-06-10T06:57:31.643Z,99.90
2019-06-10T07:00:34.302Z,99.90
2019-06-10T07:02:43.496Z,99.90
2019-06-10T07:05:22.889Z,99.90
2019-06-10T07:08:02.426Z,99.90
2019-06-10T07:10:38.799Z,99.90
2019-06-10T07:13:12.878Z,99.90
2019-06-10T07:16:13.109Z,99.90
2019-06-10T07:18:59.448Z,99.90
2019-06-10T07:22:07.461Z,99.40
2019-06-10T07:24:37.714Z,90.50
2019-06-10T07:27:13.840Z,77.40
2019-06-10T07:30:25.336Z,73.90
2019-06-10T07:33:26.859Z,70.20
2019-06-10T07:36:02.957Z,71.70
2019-06-10T07:38:37.249Z,76.20
2019-06-10T07:44:33.409Z,71.80
2019-06-10T07:47:15.534Z,74.90
2019-06-10T07:50:04.896Z,77.30
2019-06-10T07:52:53.349Z,78.30
2019-06-10T07:55:36.681Z,82.50
2019-06-10T07:58:17.060Z,85.30
2019-06-10T08:01:13.250Z,88.20
2019-06-10T08:03:52.401Z,85.20
2019-06-10T08:06:45.821Z,82.10
2019-06-10T08:09:22.615Z,75.50
2019-06-10T08:11:58.780Z,70.80
2019-06-10T08:14:53.513Z,69.40
2019-06-10T08:17:32.917Z,68.90
2019-06-10T08:20:04.941Z,67.50
2019-06-10T08:22:44.311Z,64.90
2019-06-10T08:25:19.725Z,62.50
2019-06-10T08:27:56.656Z,59.90
2019-06-10T08:30:33.774Z,58.20
2019-06-10T08:33:25.557Z,55.20
2019-06-10T08:36:49.059Z,53.30
2019-06-10T08:39:25.942Z,54.70
2019-06-10T08:42:05.346Z,54.60
2019-06-10T08:44:47.287Z,54.40
2019-06-10T08:48:16.083Z,53.20
2019-06-10T08:50:57.834Z,51.20
2019-06-10T08:53:34.007Z,48.60
2019-06-10T08:57:12.736Z,48.50
2019-06-10T09:00:12.574Z,47.50
2019-06-10T09:03:06.648Z,50.40
2019-06-10T09:06:14.573Z,52.80
2019-06-10T09:09:13.919Z,52.10
2019-06-10T09:12:06.196Z,50.70
2019-06-10T09:14:46.565Z,50.00
2019-06-10T09:18:02.616Z,49.60
2019-06-10T09:24:25.551Z,48.00
2019-06-10T09:27:34.615Z,48.00
2019-06-10T09:30:15.183Z,47.80
2019-06-10T09:33:13.010Z,46.20
2019-06-10T09:35:55.071Z,44.90
2019-06-10T09:38:33.119Z,44.50
2019-06-10T09:41:39.376Z,44.00
2019-06-10T09:44:12.711Z,43.00
2019-06-10T09:47:03.373Z,43.30
2019-06-10T09:49:46.134Z,43.00
2019-06-10T09:52:27.659Z,43.60
2019-06-10T09:55:03.300Z,43.10
2019-06-10T09:57:45.956Z,43.80
2019-06-10T10:03:25.396Z,44.30
2019-06-10T10:09:37.084Z,46.20
2019-06-10T10:18:38.333Z,44.70
2019-06-10T10:21:15.471Z,45.10
2019-06-10T10:24:07.892Z,46.00
2019-06-10T10:26:44.785Z,46.70
2019-06-10T10:30:26.184Z,45.20
2019-06-10T10:36:25.580Z,42.80
2019-06-10T10:39:02.500Z,42.90
2019-06-10T10:44:46.088Z,42.30
2019-06-10T10:52:52.694Z,41.50
2019-06-10T10:55:29.470Z,43.20
2019-06-10T10:58:06.903Z,45.10
2019-06-10T11:00:50.369Z,46.60
2019-06-10T11:06:32.273Z,46.50
2019-06-10T11:12:16.759Z,47.80
2019-06-10T11:20:37.684Z,46.20
2019-06-10T11:26:22.862Z,47.00
2019-06-10T11:35:02.922Z,49.50
2019-06-10T11:38:27.031Z,50.40
2019-06-10T11:40:50.419Z,49.70
2019-06-10T11:58:33.564Z,50.50
2019-06-10T12:01:29.158Z,50.40
2019-06-10T12:07:33.148Z,51.70
2019-06-10T12:10:18.598Z,51.70
2019-06-10T12:34:18.421Z,50.90
2019-06-10T14:08:54.570Z,52.30
2019-06-10T14:15:52.997Z,51.90
2019-06-10T14:18:36.713Z,51.90
2019-06-10T14:21:17.944Z,53.20
2019-06-10T14:36:46.754Z,52.40
2019-06-10T14:39:35.652Z,52.10
2019-06-10T15:04:19.609Z,53.70
2019-06-10T15:06:55.659Z,54.10
2019-06-10T15:29:05.243Z,55.20
2019-06-10T15:31:13.505Z,55.20
2019-06-10T15:44:04.404Z,54.40
2019-06-10T15:49:28.415Z,54.50
2019-06-10T15:52:06.020Z,54.30
2019-06-10T16:08:39.963Z,54.00
2019-06-10T16:11:34.371Z,55.30
2019-06-10T16:14:28.054Z,54.30
2019-06-10T16:24:37.261Z,54.30
2019-06-10T16:58:36.928Z,54.30
2019-06-10T17:04:37.938Z,54.30
2019-06-10T17:36:42.692Z,57.60
2019-06-10T17:46:05.160Z,59.40
2019-06-10T17:57:23.078Z,60.40
2019-06-10T18:00:46.879Z,66.90
2019-06-10T18:11:42.922Z,99.90
2019-06-10T18:15:03.488Z,99.90
2019-06-10T18:18:26.370Z,99.90
2019-06-10T18:23:53.261Z,99.90
2019-06-10T18:29:27.724Z,99.90
2019-06-10T18:32:42.963Z,99.90
2019-06-10T18:38:55.003Z,99.90
2019-06-10T18:40:53.558Z,99.90
2019-06-10T18:47:37.266Z,99.90
2019-06-10T18:50:26.152Z,99.90
2019-06-10T18:53:13.504Z,99.90
2019-06-10T18:55:47.085Z,99.90
2019-06-10T19:04:09.030Z,99.90
2019-06-10T19:06:53.672Z,99.90
2019-06-10T19:09:28.897Z,99.90
2019-06-10T19:12:06.536Z,99.90
2019-06-10T19:15:02.827Z,99.90
2019-06-10T19:17:44.319Z,99.90
2019-06-10T19:20:48.168Z,99.90
2019-06-10T19:23:22.671Z,99.90
2019-06-10T19:25:56.598Z,99.90
2019-06-10T19:28:48.781Z,99.90
2019-06-10T19:32:31.662Z,99.90
2019-06-10T19:35:17.561Z,99.90
2019-06-10T19:37:56.669Z,99.90
2019-06-10T19:43:28.742Z,99.90
2019-06-10T19:46:42.962Z,99.90
2019-06-10T19:49:46.342Z,99.90
2019-06-10T19:56:03.656Z,99.90
2019-06-10T19:59:23.545Z,99.90
2019-06-10T20:02:13.140Z,99.90
2019-06-10T20:04:52.865Z,99.90
2019-06-10T20:07:25.034Z,99.90
2019-06-10T20:09:56.577Z,99.90
2019-06-10T20:12:32.413Z,99.90
2019-06-10T20:15:05.706Z,99.90
2019-06-10T20:17:43.529Z,99.90
2019-06-10T20:20:28.311Z,99.90
2019-06-10T20:23:48.102Z,99.90
2019-06-10T20:26:27.938Z,99.90
2019-06-10T20:29:04.529Z,99.90
2019-06-10T20:31:36.061Z,99.90
2019-06-10T20:34:22.707Z,99.90
2019-06-10T20:36:55.757Z,99.90
2019-06-10T20:39:37.891Z,99.90
2019-06-10T20:42:38.158Z,99.90
2019-06-10T20:45:23.395Z,99.90
2019-06-10T20:48:33.260Z,99.90
2019-06-10T20:55:40.052Z,99.90
2019-06-10T20:58:33.536Z,99.90
2019-06-10T21:03:17.951Z,99.90
2019-06-10T21:05:17.834Z,99.90
2019-06-10T21:15:29.239Z,99.90
2019-06-10T21:18:22.534Z,99.90
2019-06-10T21:21:07.777Z,99.90
2019-06-10T21:23:55.130Z,99.90
2019-06-10T21:26:34.136Z,99.90
2019-06-10T21:29:13.015Z,99.90
2019-06-10T21:31:47.349Z,99.90
2019-06-10T21:34:27.473Z,99.90
2019-06-10T21:39:49.606Z,99.90
2019-06-10T21:42:47.932Z,99.90
2019-06-10T21:45:22.737Z,99.90
2019-06-10T21:48:05.184Z,99.90
2019-06-10T21:50:58.884Z,99.90
2019-06-10T21:53:58.852Z,99.90
2019-06-10T21:57:12.853Z,99.90
2019-06-10T22:00:13.198Z,99.90
2019-06-10T22:03:03.465Z,99.90
2019-06-10T22:05:51.705Z,99.90
2019-06-10T22:08:33.522Z,99.90
2019-06-10T22:11:42.261Z,99.90
2019-06-10T22:14:38.388Z,99.90
2019-06-10T22:17:28.582Z,99.90
2019-06-10T22:20:36.095Z,99.90
2019-06-10T22:26:51.036Z,99.90
2019-06-10T22:29:32.144Z,99.90
2019-06-10T22:32:08.972Z,99.90
2019-06-10T22:34:45.419Z,99.90
2019-06-10T22:37:45.611Z,99.90
2019-06-10T22:40:46.937Z,99.90
2019-06-10T22:43:42.650Z,99.90
2019-06-10T22:46:12.946Z,99.90
2019-06-10T22:48:48.988Z,99.90
2019-06-10T22:51:22.726Z,99.90
2019-06-10T22:53:59.870Z,99.90
2019-06-10T22:56:42.429Z,99.90
2019-06-10T22:59:14.249Z,99.90
2019-06-10T23:01:45.764Z,99.90
2019-06-10T23:04:24.417Z,99.90
2019-06-10T23:06:58.493Z,99.90
2019-06-10T23:09:33.000Z,99.90
2019-06-10T23:12:16.089Z,99.90
2019-06-10T23:14:53.238Z,99.90
2019-06-10T23:17:25.660Z,99.90
2019-06-10T23:20:03.185Z,99.90
2019-06-10T23:22:44.778Z,99.90
2019-06-10T23:25:19.254Z,99.90
2019-06-10T23:27:54.652Z,99.90
2019-06-10T23:30:24.525Z,99.90
2019-06-10T23:33:23.076Z,99.90
2019-06-10T23:36:28.124Z,99.90
2019-06-10T23:39:18.255Z,99.90
2019-06-10T23:41:51.261Z,99.90
2019-06-10T23:44:24.600Z,99.90
2019-06-10T23:46:59.304Z,99.90
2019-06-10T23:49:32.287Z,99.90
2019-06-10T23:52:05.335Z,99.90
2019-06-10T23:54:38.364Z,99.90
2019-06-10T23:57:13.063Z,99.90
2019-06-10T23:59:44.195Z,99.90
